createdAt,value
2019-03-06T00:00:41.585Z,9.13
2019-03-06T00:05:44.821Z,5.67
2019-03-06T00:10:48.048Z,5.47
2019-03-06T00:15:52.189Z,5.45
2019-03-06T00:20:55.625Z,10.23
2019-03-06T00:25:59.298Z,9.93
2019-03-06T00:31:03.755Z,12.60
2019-03-06T00:36:13.548Z,10.03
2019-03-06T00:41:22.140Z,7.10
2019-03-06T00:46:25.500Z,8.33
2019-03-06T00:51:30.443Z,10.88
2019-03-06T00:56:34.824Z,5.08
2019-03-06T01:01:38.202Z,7.90
2019-03-06T01:06:41.631Z,5.42
2019-03-06T01:11:45.455Z,9.00
2019-03-06T01:16:49.562Z,7.72
2019-03-06T01:21:54.039Z,6.15
2019-03-06T01:26:57.800Z,8.48
2019-03-06T01:32:01.848Z,8.50
2019-03-06T01:37:20.736Z,9.40
2019-03-06T01:42:30.035Z,5.33
2019-03-06T01:47:33.395Z,7.95
2019-03-06T01:52:36.962Z,6.30
2019-03-06T01:57:40.606Z,4.83
2019-03-06T02:02:44.237Z,4.90
2019-03-06T02:07:48.080Z,5.30
2019-03-06T02:12:51.796Z,6.95
2019-03-06T02:17:55.385Z,7.37
2019-03-06T02:22:58.741Z,5.90
2019-03-06T02:28:03.165Z,7.70
2019-03-06T02:33:09.791Z,4.53
2019-03-06T02:38:13.488Z,8.08
2019-03-06T02:43:17.596Z,7.22
2019-03-06T02:48:21.608Z,6.33
2019-03-06T02:53:25.203Z,5.40
2019-03-06T02:58:38.525Z,6.90
2019-03-06T03:04:04.464Z,6.40
2019-03-06T03:09:16.423Z,6.65
2019-03-06T03:14:19.673Z,2.47
2019-03-06T03:19:23.979Z,5.08
2019-03-06T03:24:30.097Z,6.80
2019-03-06T03:29:33.558Z,9.03
2019-03-06T03:34:37.411Z,10.28
2019-03-06T03:39:41.806Z,6.53
2019-03-06T03:44:45.100Z,7.75
2019-03-06T03:49:48.910Z,5.28
2019-03-06T03:55:12.786Z,8.85
2019-03-06T04:00:16.552Z,4.85
2019-03-06T04:05:20.913Z,9.23
2019-03-06T04:10:24.248Z,10.72
2019-03-06T04:15:28.403Z,7.15
2019-03-06T04:20:33.146Z,10.93
2019-03-06T04:25:36.495Z,12.18
2019-03-06T04:30:39.834Z,10.98
2019-03-06T04:35:43.164Z,6.37
2019-03-06T04:40:46.430Z,10.30
2019-03-06T04:45:49.767Z,11.53
2019-03-06T04:50:53.314Z,10.80
2019-03-06T04:55:56.739Z,8.80
2019-03-06T05:01:00.078Z,5.87
2019-03-06T05:06:04.007Z,10.20
2019-03-06T05:11:07.493Z,6.42
2019-03-06T05:16:11.140Z,9.70
2019-03-06T05:21:16.995Z,12.85
2019-03-06T05:26:20.764Z,6.90
2019-03-06T05:31:25.303Z,9.98
2019-03-06T05:37:23.922Z,9.63
2019-03-06T05:42:27.395Z,15.93
2019-03-06T05:47:30.742Z,12.40
2019-03-06T05:52:34.634Z,13.30
2019-03-06T05:57:38.981Z,14.90
2019-03-06T06:02:42.739Z,7.28
2019-03-06T06:07:46.185Z,11.68
2019-03-06T06:12:50.603Z,15.63
2019-03-06T06:17:53.953Z,12.33
2019-03-06T06:23:26.121Z,15.03
2019-03-06T06:28:29.370Z,15.28
2019-03-06T06:33:32.779Z,12.15
2019-03-06T06:38:37.493Z,10.32
2019-03-06T06:43:41.225Z,15.72
2019-03-06T06:48:45.090Z,12.37
2019-03-06T06:54:08.901Z,14.10
2019-03-06T06:59:45.618Z,13.85
2019-03-06T07:05:17.336Z,13.40
2019-03-06T07:10:58.129Z,13.62
2019-03-06T07:16:19.807Z,15.50
2019-03-06T07:21:32.215Z,13.05
2019-03-06T07:26:58.399Z,13.58
2019-03-06T07:32:21.550Z,16.40
2019-03-06T07:37:42.118Z,7.70
2019-03-06T07:42:56.459Z,12.20
2019-03-06T07:48:17.888Z,6.25
2019-03-06T07:54:12.947Z,8.60
2019-03-06T07:59:16.610Z,13.53
2019-03-06T08:04:20.708Z,11.93
2019-03-06T08:09:25.518Z,14.18
2019-03-06T08:14:48.215Z,14.90
2019-03-06T08:20:30.135Z,9.93
2019-03-06T08:25:43.577Z,12.60
2019-03-06T08:30:51.073Z,15.95
2019-03-06T08:35:55.548Z,14.65
2019-03-06T08:41:04.242Z,15.00
2019-03-06T08:46:33.181Z,12.37
2019-03-06T08:51:43.054Z,10.82
2019-03-06T08:57:08.961Z,14.87
2019-03-06T09:02:38.788Z,15.25
2019-03-06T09:08:04.515Z,13.85
2019-03-06T09:13:26.362Z,14.53
2019-03-06T09:18:56.294Z,13.78
2019-03-06T09:24:28.237Z,8.60
2019-03-06T09:30:05.046Z,10.03
2019-03-06T09:35:46.356Z,8.13
2019-03-06T09:41:09.593Z,8.15
2019-03-06T09:46:29.003Z,11.55
2019-03-06T09:51:51.848Z,12.28
2019-03-06T09:57:14.225Z,5.87
2019-03-06T10:02:43.407Z,10.28
2019-03-06T10:07:52.241Z,4.70
2019-03-06T10:13:09.505Z,10.55
2019-03-06T10:18:37.816Z,8.48
2019-03-06T10:23:41.442Z,9.15
2019-03-06T10:28:44.856Z,7.50
2019-03-06T10:33:48.927Z,9.70
2019-03-06T10:38:52.419Z,7.72
2019-03-06T10:43:56.008Z,5.95
2019-03-06T10:48:59.560Z,8.80
2019-03-06T10:54:03.315Z,6.72
2019-03-06T10:59:07.808Z,3.95
2019-03-06T11:04:29.851Z,6.58
2019-03-06T11:09:33.470Z,7.42
2019-03-06T11:14:39.893Z,8.38
2019-03-06T11:19:43.337Z,8.23
2019-03-06T11:24:46.860Z,6.62
2019-03-06T11:29:50.184Z,6.70
2019-03-06T11:34:54.173Z,7.17
2019-03-06T11:39:58.084Z,6.05
2019-03-06T11:45:02.303Z,5.40
2019-03-06T11:50:07.265Z,6.35
2019-03-06T11:55:11.515Z,5.87
2019-03-06T12:00:29.292Z,6.22
2019-03-06T12:05:34.657Z,5.67
2019-03-06T12:10:39.197Z,6.50
2019-03-06T12:15:45.992Z,7.47
2019-03-06T12:20:50.069Z,9.33
2019-03-06T12:25:55.553Z,6.22
2019-03-06T12:30:59.837Z,7.42
2019-03-06T12:36:03.358Z,4.78
2019-03-06T12:41:06.808Z,6.58
2019-03-06T12:46:24.532Z,7.37
2019-03-06T12:51:28.840Z,6.95
2019-03-06T12:56:46.046Z,8.78
2019-03-06T13:01:50.145Z,8.78
2019-03-06T13:06:53.714Z,8.53
2019-03-06T13:11:58.234Z,8.48
2019-03-06T13:17:01.766Z,7.75
2019-03-06T13:22:11.118Z,7.30
2019-03-06T13:27:11.598Z,7.50
2019-03-06T13:32:15.397Z,7.55
2019-03-06T13:37:18.943Z,8.73
2019-03-06T13:42:23.028Z,9.75
2019-03-06T13:47:26.663Z,8.93
2019-03-06T13:52:30.885Z,8.60
2019-03-06T13:57:34.711Z,8.83
2019-03-06T14:02:38.151Z,9.43
2019-03-06T14:07:41.891Z,8.78
2019-03-06T14:12:46.112Z,9.28
2019-03-06T14:17:50.031Z,9.00
2019-03-06T14:22:53.335Z,8.68
2019-03-06T14:27:58.213Z,9.15
2019-03-06T14:33:01.526Z,10.28
2019-03-06T14:38:06.918Z,9.45
2019-03-06T14:43:10.701Z,8.83
2019-03-06T14:48:14.188Z,8.48
2019-03-06T14:53:18.305Z,7.33
2019-03-06T14:58:22.113Z,7.53
2019-03-06T15:03:25.452Z,8.45
2019-03-06T15:08:29.708Z,8.48
2019-03-06T15:13:33.020Z,7.75
2019-03-06T15:18:36.328Z,7.25
2019-03-06T15:23:39.850Z,8.05
2019-03-06T15:28:43.216Z,8.08
2019-03-06T15:33:46.816Z,7.87
2019-03-06T15:38:52.091Z,8.13
2019-03-06T15:43:55.755Z,8.33
2019-03-06T15:48:59.102Z,8.40
2019-03-06T15:54:03.494Z,8.15
2019-03-06T15:59:14.617Z,8.65
2019-03-06T16:04:13.314Z,8.08
2019-03-06T16:09:16.932Z,9.28
2019-03-06T16:14:21.520Z,9.50
2019-03-06T16:19:24.993Z,11.70
2019-03-06T16:24:29.212Z,11.28
2019-03-06T16:29:33.577Z,11.55
2019-03-06T16:34:37.096Z,12.30
2019-03-06T16:39:41.017Z,13.45
2019-03-06T16:44:44.644Z,13.18
2019-03-06T16:49:49.870Z,13.95
2019-03-06T16:54:54.483Z,13.10
2019-03-06T16:59:57.975Z,15.58
2019-03-06T17:05:04.418Z,15.58
2019-03-06T17:10:08.081Z,16.55
2019-03-06T17:15:12.723Z,17.90
2019-03-06T17:20:19.160Z,16.23
2019-03-06T17:25:23.290Z,16.52
2019-03-06T17:30:27.380Z,16.60
2019-03-06T17:35:31.852Z,15.43
2019-03-06T17:40:35.989Z,17.37
2019-03-06T17:45:39.609Z,19.25
2019-03-06T17:50:43.067Z,19.10
2019-03-06T17:55:47.082Z,19.23
2019-03-06T18:00:53.593Z,19.42
2019-03-06T18:05:58.545Z,18.97
2019-03-06T18:11:02.228Z,20.88
2019-03-06T18:16:05.932Z,19.32
2019-03-06T18:21:09.404Z,21.07
2019-03-06T18:26:12.846Z,21.52
2019-03-06T18:31:17.820Z,19.92
2019-03-06T18:36:21.987Z,20.95
2019-03-06T18:41:25.349Z,19.35
2019-03-06T18:46:28.916Z,20.57
2019-03-06T18:51:32.288Z,22.10
2019-03-06T18:56:35.952Z,22.07
2019-03-06T19:01:40.699Z,20.45
2019-03-06T19:06:44.442Z,23.80
2019-03-06T19:11:48.540Z,21.65
2019-03-06T19:16:52.353Z,18.50
2019-03-06T19:21:55.822Z,20.70
2019-03-06T19:27:00.307Z,21.77
2019-03-06T19:32:03.831Z,21.35
2019-03-06T19:37:07.599Z,21.95
2019-03-06T19:42:11.112Z,20.05
2019-03-06T19:47:14.449Z,21.00
2019-03-06T19:52:18.570Z,20.50
2019-03-06T19:57:23.232Z,20.57
2019-03-06T20:02:28.511Z,14.70
2019-03-06T20:07:31.875Z,20.12
2019-03-06T20:12:35.171Z,19.55
2019-03-06T20:17:38.569Z,19.90
2019-03-06T20:22:42.309Z,18.62
2019-03-06T20:27:45.963Z,19.73
2019-03-06T20:32:49.302Z,19.00
2019-03-06T20:37:52.900Z,17.95
2019-03-06T20:42:56.253Z,17.62
2019-03-06T20:48:03.310Z,17.48
2019-03-06T20:53:07.415Z,17.05
2019-03-06T20:58:10.690Z,18.45
2019-03-06T21:03:14.653Z,16.15
2019-03-06T21:08:18.201Z,14.25
2019-03-06T21:13:21.927Z,16.20
2019-03-06T21:18:27.251Z,14.43
2019-03-06T21:23:31.124Z,15.83
2019-03-06T21:28:34.556Z,16.25
2019-03-06T21:33:38.008Z,15.30
2019-03-06T21:38:42.356Z,14.55
2019-03-06T21:43:45.654Z,15.15
2019-03-06T21:48:49.536Z,15.18
2019-03-06T21:53:52.995Z,16.05
2019-03-06T21:58:56.388Z,15.58
2019-03-06T22:04:00.113Z,17.48
2019-03-06T22:09:10.430Z,14.15
2019-03-06T22:14:13.755Z,14.47
2019-03-06T22:19:17.899Z,16.65
2019-03-06T22:24:21.232Z,15.08
2019-03-06T22:29:24.889Z,15.15
2019-03-06T22:34:28.468Z,13.32
2019-03-06T22:39:31.799Z,15.30
2019-03-06T22:44:35.229Z,15.60
2019-03-06T22:49:38.560Z,17.05
2019-03-06T22:54:42.820Z,16.70
2019-03-06T22:59:46.249Z,16.52
2019-03-06T23:04:49.569Z,15.80
2019-03-06T23:09:52.909Z,16.50
2019-03-06T23:14:56.347Z,15.90
2019-03-06T23:20:00.361Z,15.25
2019-03-06T23:25:04.159Z,15.60
2019-03-06T23:30:09.026Z,14.83
2019-03-06T23:35:13.148Z,15.43
2019-03-06T23:40:18.941Z,15.10
2019-03-06T23:45:22.253Z,16.15
2019-03-06T23:50:25.584Z,16.37
2019-03-06T23:55:29.609Z,13.48
